sensor_id;sensor_type;location;lat;lon;timestamp;temperature;humidity
22742;DHT22;11538;48.884;8.696;2023-05-02T00:02:25;10.90;99.90
22742;DHT22;11538;48.884;8.696;2023-05-02T00:04:53;10.90;99.90
22742;DHT22;11538;48.884;8.696;2023-05-02T00:07:20;10.90;99.90
22742;DHT22;11538;48.884;8.696;2023-05-02T00:09:47;10.90;99.90
22742;DHT22;11538;48.884;8.696;2023-05-02T00:12:14;10.80;99.90
22742;DHT22;11538;48.884;8.696;2023-05-02T00:14:43;10.90;99.90
22742;DHT22;11538;48.884;8.696;2023-05-02T00:17:17;10.90;99.90
22742;DHT22;11538;48.884;8.696;2023-05-02T00:19:46;10.90;99.90
22742;DHT22;11538;48.884;8.696;2023-05-02T00:22:16;10.90;99.90
22742;DHT22;11538;48.884;8.696;2023-05-02T00:24:43;10.90;99.90
22742;DHT22;11538;48.884;8.696;2023-05-02T00:27:10;10.90;99.90
22742;DHT22;11538;48.884;8.696;2023-05-02T00:29:37;10.90;99.90
22742;DHT22;11538;48.884;8.696;2023-05-02T00:32:05;10.80;99.90
22742;DHT22;11538;48.884;8.696;2023-05-02T00:34:32;10.80;99.90
22742;DHT22;11538;48.884;8.696;2023-05-02T00:36:59;10.80;99.90
22742;DHT22;11538;48.884;8.696;2023-05-02T00:39:26;10.70;99.90
22742;DHT22;11538;48.884;8.696;2023-05-02T00:41:57;10.60;99.90
22742;DHT22;11538;48.884;8.696;2023-05-02T00:44:24;10.60;99.90
22742;DHT22;11538;48.884;8.696;2023-05-02T00:46:51;10.60;99.90
22742;DHT22;11538;48.884;8.696;2023-05-02T00:49:19;10.60;99.90
22742;DHT22;11538;48.884;8.696;2023-05-02T00:51:46;10.60;99.90
22742;DHT22;11538;48.884;8.696;2023-05-02T00:54:14;10.60;99.90
22742;DHT22;11538;48.884;8.696;2023-05-02T00:56:41;10.60;99.90
22742;DHT22;11538;48.884;8.696;2023-05-02T00:59:09;10.70;99.90
22742;DHT22;11538;48.884;8.696;2023-05-02T01:10:28;10.60;99.90
22742;DHT22;11538;48.884;8.696;2023-05-02T01:13:27;10.50;99.90
22742;DHT22;11538;48.884;8.696;2023-05-02T01:15:58;10.50;99.90
22742;DHT22;11538;48.884;8.696;2023-05-02T01:18:34;10.40;99.90
22742;DHT22;11538;48.884;8.696;2023-05-02T01:21:06;10.40;99.90
22742;DHT22;11538;48.884;8.696;2023-05-02T01:24:01;10.40;99.90
22742;DHT22;11538;48.884;8.696;2023-05-02T01:26:50;10.50;99.90
22742;DHT22;11538;48.884;8.696;2023-05-02T01:29:26;10.40;99.90
22742;DHT22;11538;48.884;8.696;2023-05-02T01:31:55;10.40;99.90
22742;DHT22;11538;48.884;8.696;2023-05-02T01:34:27;10.30;99.90
22742;DHT22;11538;48.884;8.696;2023-05-02T01:36:57;10.30;99.90
22742;DHT22;11538;48.884;8.696;2023-05-02T01:39:27;10.30;99.90
22742;DHT22;11538;48.884;8.696;2023-05-02T01:41:56;10.30;99.90
22742;DHT22;11538;48.884;8.696;2023-05-02T01:44:29;10.40;99.90
22742;DHT22;11538;48.884;8.696;2023-05-02T01:46:59;10.40;99.90
22742;DHT22;11538;48.884;8.696;2023-05-02T01:49:32;10.40;99.90
22742;DHT22;11538;48.884;8.696;2023-05-02T01:52:04;10.40;99.90
22742;DHT22;11538;48.884;8.696;2023-05-02T01:54:34;10.30;99.90
22742;DHT22;11538;48.884;8.696;2023-05-02T01:57:05;10.30;99.90
22742;DHT22;11538;48.884;8.696;2023-05-02T01:59:36;10.30;99.90
22742;DHT22;11538;48.884;8.696;2023-05-02T02:02:07;10.30;99.90
22742;DHT22;11538;48.884;8.696;2023-05-02T02:04:38;10.20;99.90
22742;DHT22;11538;48.884;8.696;2023-05-02T02:07:09;10.20;99.90
22742;DHT22;11538;48.884;8.696;2023-05-02T02:09:39;10.10;99.90
22742;DHT22;11538;48.884;8.696;2023-05-02T02:12:23;10.10;99.90
22742;DHT22;11538;48.884;8.696;2023-05-02T02:15:02;10.00;99.90
22742;DHT22;11538;48.884;8.696;2023-05-02T02:17:41;10.00;99.90
22742;DHT22;11538;48.884;8.696;2023-05-02T02:20:14;10.00;99.90
22742;DHT22;11538;48.884;8.696;2023-05-02T02:22:43;10.00;99.90
22742;DHT22;11538;48.884;8.696;2023-05-02T02:25:14;10.00;99.90
22742;DHT22;11538;48.884;8.696;2023-05-02T02:27:43;10.00;99.90
22742;DHT22;11538;48.884;8.696;2023-05-02T02:30:10;10.00;99.90
22742;DHT22;11538;48.884;8.696;2023-05-02T02:32:37;10.00;99.90
22742;DHT22;11538;48.884;8.696;2023-05-02T02:35:05;10.00;99.90
22742;DHT22;11538;48.884;8.696;2023-05-02T02:37:47;10.00;99.90
22742;DHT22;11538;48.884;8.696;2023-05-02T02:40:50;10.00;99.90
22742;DHT22;11538;48.884;8.696;2023-05-02T02:53:04;9.80;99.90
22742;DHT22;11538;48.884;8.696;2023-05-02T02:56:14;9.70;99.90
22742;DHT22;11538;48.884;8.696;2023-05-02T03:01:32;9.70;99.90
22742;DHT22;11538;48.884;8.696;2023-05-02T03:04:04;9.70;99.90
22742;DHT22;11538;48.884;8.696;2023-05-02T03:06:34;9.70;99.90
22742;DHT22;11538;48.884;8.696;2023-05-02T03:09:01;9.70;99.90
22742;DHT22;11538;48.884;8.696;2023-05-02T03:11:29;9.60;99.90
22742;DHT22;11538;48.884;8.696;2023-05-02T03:13:57;9.60;99.90
22742;DHT22;11538;48.884;8.696;2023-05-02T03:16:36;9.60;99.90
22742;DHT22;11538;48.884;8.696;2023-05-02T03:19:05;9.50;99.90
22742;DHT22;11538;48.884;8.696;2023-05-02T03:21:34;9.40;99.90
22742;DHT22;11538;48.884;8.696;2023-05-02T03:24:03;9.40;99.90
22742;DHT22;11538;48.884;8.696;2023-05-02T03:26:30;9.30;99.90
22742;DHT22;11538;48.884;8.696;2023-05-02T03:28:57;9.30;99.90
22742;DHT22;11538;48.884;8.696;2023-05-02T03:31:24;9.30;99.90
22742;DHT22;11538;48.884;8.696;2023-05-02T03:33:52;9.40;99.90
22742;DHT22;11538;48.884;8.696;2023-05-02T03:36:20;9.40;99.90
22742;DHT22;11538;48.884;8.696;2023-05-02T03:38:46;9.40;99.90
22742;DHT22;11538;48.884;8.696;2023-05-02T03:41:14;9.50;99.90
22742;DHT22;11538;48.884;8.696;2023-05-02T03:43:41;9.50;99.90
22742;DHT22;11538;48.884;8.696;2023-05-02T03:46:08;9.40;99.90
22742;DHT22;11538;48.884;8.696;2023-05-02T03:48:37;9.40;99.90
22742;DHT22;11538;48.884;8.696;2023-05-02T03:51:05;9.30;99.90
22742;DHT22;11538;48.884;8.696;2023-05-02T03:53:35;9.30;99.90
22742;DHT22;11538;48.884;8.696;2023-05-02T03:56:03;9.30;99.90
22742;DHT22;11538;48.884;8.696;2023-05-02T03:58:30;9.20;99.90
22742;DHT22;11538;48.884;8.696;2023-05-02T04:00:56;9.20;99.90
22742;DHT22;11538;48.884;8.696;2023-05-02T04:03:23;9.20;99.90
22742;DHT22;11538;48.884;8.696;2023-05-02T04:05:53;9.30;99.90
22742;DHT22;11538;48.884;8.696;2023-05-02T04:08:20;9.40;99.90
22742;DHT22;11538;48.884;8.696;2023-05-02T04:10:50;9.40;99.90
22742;DHT22;11538;48.884;8.696;2023-05-02T04:13:18;9.50;99.90
22742;DHT22;11538;48.884;8.696;2023-05-02T04:15:44;9.50;99.90
22742;DHT22;11538;48.884;8.696;2023-05-02T04:18:12;9.50;99.90
22742;DHT22;11538;48.884;8.696;2023-05-02T04:20:42;9.40;99.90
22742;DHT22;11538;48.884;8.696;2023-05-02T04:23:10;9.40;99.90
22742;DHT22;11538;48.884;8.696;2023-05-02T04:25:37;9.40;99.90
22742;DHT22;11538;48.884;8.696;2023-05-02T04:28:05;9.50;99.90
22742;DHT22;11538;48.884;8.696;2023-05-02T04:30:33;9.50;99.90
22742;DHT22;11538;48.884;8.696;2023-05-02T04:33:00;9.50;99.90
22742;DHT22;11538;48.884;8.696;2023-05-02T04:35:27;9.50;99.90
22742;DHT22;11538;48.884;8.696;2023-05-02T04:37:54;9.60;99.90
22742;DHT22;11538;48.884;8.696;2023-05-02T04:40:20;9.60;99.90
22742;DHT22;11538;48.884;8.696;2023-05-02T04:42:47;9.60;99.90
22742;DHT22;11538;48.884;8.696;2023-05-02T04:45:14;9.70;99.90
22742;DHT22;11538;48.884;8.696;2023-05-02T04:47:41;9.70;99.90
22742;DHT22;11538;48.884;8.696;2023-05-02T04:50:08;9.70;99.90
22742;DHT22;11538;48.884;8.696;2023-05-02T04:52:35;9.70;99.90
22742;DHT22;11538;48.884;8.696;2023-05-02T04:55:02;9.70;99.90
22742;DHT22;11538;48.884;8.696;2023-05-02T04:57:30;9.60;99.90
22742;DHT22;11538;48.884;8.696;2023-05-02T04:59:57;9.60;99.90
22742;DHT22;11538;48.884;8.696;2023-05-02T05:02:25;9.60;99.90
22742;DHT22;11538;48.884;8.696;2023-05-02T05:04:52;9.60;99.90
22742;DHT22;11538;48.884;8.696;2023-05-02T05:07:19;9.60;99.90
22742;DHT22;11538;48.884;8.696;2023-05-02T05:09:46;9.60;99.90
22742;DHT22;11538;48.884;8.696;2023-05-02T05:12:13;9.60;99.90
22742;DHT22;11538;48.884;8.696;2023-05-02T05:14:40;9.50;99.90
22742;DHT22;11538;48.884;8.696;2023-05-02T05:17:09;9.50;99.90
22742;DHT22;11538;48.884;8.696;2023-05-02T05:19:36;9.60;99.90
22742;DHT22;11538;48.884;8.696;2023-05-02T05:22:03;9.70;99.90
22742;DHT22;11538;48.884;8.696;2023-05-02T05:24:30;9.70;99.90
22742;DHT22;11538;48.884;8.696;2023-05-02T05:26:59;9.70;99.90
22742;DHT22;11538;48.884;8.696;2023-05-02T05:29:30;9.80;99.90
22742;DHT22;11538;48.884;8.696;2023-05-02T05:31:58;9.70;99.90
22742;DHT22;11538;48.884;8.696;2023-05-02T05:34:25;9.70;99.90
22742;DHT22;11538;48.884;8.696;2023-05-02T05:36:52;9.70;99.90
22742;DHT22;11538;48.884;8.696;2023-05-02T05:39:19;9.70;99.90
22742;DHT22;11538;48.884;8.696;2023-05-02T05:41:49;9.70;99.90
22742;DHT22;11538;48.884;8.696;2023-05-02T05:44:17;9.70;99.90
22742;DHT22;11538;48.884;8.696;2023-05-02T05:46:45;9.80;99.90
22742;DHT22;11538;48.884;8.696;2023-05-02T05:49:11;9.80;99.90
22742;DHT22;11538;48.884;8.696;2023-05-02T05:51:40;9.90;99.90
22742;DHT22;11538;48.884;8.696;2023-05-02T05:54:07;9.90;99.90
22742;DHT22;11538;48.884;8.696;2023-05-02T05:56:34;10.00;99.90
22742;DHT22;11538;48.884;8.696;2023-05-02T05:59:01;10.00;99.90
22742;DHT22;11538;48.884;8.696;2023-05-02T06:01:28;10.00;99.90
22742;DHT22;11538;48.884;8.696;2023-05-02T06:03:55;10.00;99.90
22742;DHT22;11538;48.884;8.696;2023-05-02T06:06:22;10.10;99.90
22742;DHT22;11538;48.884;8.696;2023-05-02T06:08:49;10.10;99.90
22742;DHT22;11538;48.884;8.696;2023-05-02T06:11:16;10.10;99.90
22742;DHT22;11538;48.884;8.696;2023-05-02T06:13:43;10.20;99.90
22742;DHT22;11538;48.884;8.696;2023-05-02T06:16:10;10.20;99.90
22742;DHT22;11538;48.884;8.696;2023-05-02T06:18:37;10.30;99.90
22742;DHT22;11538;48.884;8.696;2023-05-02T06:21:05;10.40;99.90
22742;DHT22;11538;48.884;8.696;2023-05-02T06:23:31;10.40;99.90
22742;DHT22;11538;48.884;8.696;2023-05-02T06:25:59;10.50;99.90
22742;DHT22;11538;48.884;8.696;2023-05-02T06:28:27;10.60;99.90
22742;DHT22;11538;48.884;8.696;2023-05-02T06:31:04;10.70;99.90
22742;DHT22;11538;48.884;8.696;2023-05-02T06:33:32;10.70;99.90
22742;DHT22;11538;48.884;8.696;2023-05-02T06:36:00;10.80;99.90
22742;DHT22;11538;48.884;8.696;2023-05-02T06:38:28;10.90;99.90
22742;DHT22;11538;48.884;8.696;2023-05-02T06:40:55;10.90;99.90
22742;DHT22;11538;48.884;8.696;2023-05-02T06:43:22;11.00;99.90
22742;DHT22;11538;48.884;8.696;2023-05-02T06:45:52;11.10;99.90
22742;DHT22;11538;48.884;8.696;2023-05-02T06:48:20;11.20;99.90
22742;DHT22;11538;48.884;8.696;2023-05-02T06:50:48;11.30;99.90
22742;DHT22;11538;48.884;8.696;2023-05-02T06:53:17;11.30;99.90
22742;DHT22;11538;48.884;8.696;2023-05-02T06:55:44;11.50;99.90
22742;DHT22;11538;48.884;8.696;2023-05-02T06:58:12;11.60;99.90
22742;DHT22;11538;48.884;8.696;2023-05-02T07:00:39;11.70;99.90
22742;DHT22;11538;48.884;8.696;2023-05-02T07:03:06;11.80;99.90
22742;DHT22;11538;48.884;8.696;2023-05-02T07:05:33;11.90;99.90
22742;DHT22;11538;48.884;8.696;2023-05-02T07:08:00;11.90;99.90
22742;DHT22;11538;48.884;8.696;2023-05-02T07:10:27;12.00;99.90
22742;DHT22;11538;48.884;8.696;2023-05-02T07:12:54;12.20;99.90
22742;DHT22;11538;48.884;8.696;2023-05-02T07:15:21;12.20;99.90
22742;DHT22;11538;48.884;8.696;2023-05-02T07:17:49;12.30;99.90
22742;DHT22;11538;48.884;8.696;2023-05-02T07:20:16;12.40;99.90
22742;DHT22;11538;48.884;8.696;2023-05-02T07:22:43;12.40;99.90
22742;DHT22;11538;48.884;8.696;2023-05-02T07:25:14;12.50;99.90
22742;DHT22;11538;48.884;8.696;2023-05-02T07:27:41;12.50;99.90
22742;DHT22;11538;48.884;8.696;2023-05-02T07:30:08;12.50;99.90
22742;DHT22;11538;48.884;8.696;2023-05-02T07:32:38;12.60;99.90
22742;DHT22;11538;48.884;8.696;2023-05-02T07:35:05;12.60;99.90
22742;DHT22;11538;48.884;8.696;2023-05-02T07:37:33;12.70;99.90
22742;DHT22;11538;48.884;8.696;2023-05-02T07:40:01;12.70;99.90
22742;DHT22;11538;48.884;8.696;2023-05-02T07:42:30;12.80;99.90
22742;DHT22;11538;48.884;8.696;2023-05-02T07:44:58;12.80;99.90
22742;DHT22;11538;48.884;8.696;2023-05-02T07:47:25;12.90;99.90
22742;DHT22;11538;48.884;8.696;2023-05-02T07:49:54;13.00;99.90
22742;DHT22;11538;48.884;8.696;2023-05-02T07:52:21;13.00;99.90
22742;DHT22;11538;48.884;8.696;2023-05-02T07:54:48;13.10;99.90
22742;DHT22;11538;48.884;8.696;2023-05-02T07:57:16;13.20;99.90
22742;DHT22;11538;48.884;8.696;2023-05-02T07:59:44;13.20;99.90
22742;DHT22;11538;48.884;8.696;2023-05-02T08:02:10;13.20;99.90
22742;DHT22;11538;48.884;8.696;2023-05-02T08:04:39;13.20;99.90
22742;DHT22;11538;48.884;8.696;2023-05-02T08:07:06;13.30;99.90
22742;DHT22;11538;48.884;8.696;2023-05-02T08:09:33;13.30;99.90
22742;DHT22;11538;48.884;8.696;2023-05-02T08:12:00;13.30;99.90
22742;DHT22;11538;48.884;8.696;2023-05-02T08:14:30;13.40;99.90
22742;DHT22;11538;48.884;8.696;2023-05-02T08:16:58;13.40;99.90
22742;DHT22;11538;48.884;8.696;2023-05-02T08:19:26;13.40;99.90
22742;DHT22;11538;48.884;8.696;2023-05-02T08:21:53;13.40;99.90
22742;DHT22;11538;48.884;8.696;2023-05-02T08:24:21;13.40;99.90
22742;DHT22;11538;48.884;8.696;2023-05-02T08:26:48;13.40;99.90
22742;DHT22;11538;48.884;8.696;2023-05-02T08:29:15;13.40;99.90
22742;DHT22;11538;48.884;8.696;2023-05-02T08:31:42;13.50;99.90
22742;DHT22;11538;48.884;8.696;2023-05-02T08:34:09;13.50;99.90
22742;DHT22;11538;48.884;8.696;2023-05-02T08:36:36;13.50;99.90
22742;DHT22;11538;48.884;8.696;2023-05-02T08:39:03;13.50;99.90
22742;DHT22;11538;48.884;8.696;2023-05-02T08:41:30;13.50;99.90
22742;DHT22;11538;48.884;8.696;2023-05-02T08:43:58;13.60;99.90
22742;DHT22;11538;48.884;8.696;2023-05-02T08:46:26;13.70;99.90
22742;DHT22;11538;48.884;8.696;2023-05-02T08:48:56;13.70;99.90
22742;DHT22;11538;48.884;8.696;2023-05-02T08:51:26;13.80;99.90
22742;DHT22;11538;48.884;8.696;2023-05-02T08:53:56;13.80;99.90
22742;DHT22;11538;48.884;8.696;2023-05-02T08:56:24;13.90;99.90
22742;DHT22;11538;48.884;8.696;2023-05-02T08:58:51;13.90;99.90
22742;DHT22;11538;48.884;8.696;2023-05-02T09:01:22;14.00;99.90
22742;DHT22;11538;48.884;8.696;2023-05-02T09:03:50;14.00;99.90
22742;DHT22;11538;48.884;8.696;2023-05-02T09:06:21;14.10;99.90
22742;DHT22;11538;48.884;8.696;2023-05-02T09:08:50;14.10;99.90
22742;DHT22;11538;48.884;8.696;2023-05-02T09:11:20;14.10;99.90
22742;DHT22;11538;48.884;8.696;2023-05-02T09:13:49;14.10;99.90
22742;DHT22;11538;48.884;8.696;2023-05-02T09:16:22;14.10;99.90
22742;DHT22;11538;48.884;8.696;2023-05-02T09:18:52;14.20;99.90
22742;DHT22;11538;48.884;8.696;2023-05-02T09:21:23;14.20;99.90
22742;DHT22;11538;48.884;8.696;2023-05-02T09:23:56;14.30;99.90
22742;DHT22;11538;48.884;8.696;2023-05-02T09:26:26;14.40;99.90
22742;DHT22;11538;48.884;8.696;2023-05-02T09:29:02;14.50;99.90
22742;DHT22;11538;48.884;8.696;2023-05-02T09:31:31;14.70;99.90
22742;DHT22;11538;48.884;8.696;2023-05-02T09:34:21;14.80;99.90
22742;DHT22;11538;48.884;8.696;2023-05-02T09:36:49;14.90;99.90
22742;DHT22;11538;48.884;8.696;2023-05-02T09:39:21;15.00;99.90
22742;DHT22;11538;48.884;8.696;2023-05-02T09:41:52;15.00;99.90
22742;DHT22;11538;48.884;8.696;2023-05-02T09:44:22;15.10;99.90
22742;DHT22;11538;48.884;8.696;2023-05-02T09:46:55;15.10;99.90
22742;DHT22;11538;48.884;8.696;2023-05-02T09:49:44;15.10;99.90
22742;DHT22;11538;48.884;8.696;2023-05-02T09:52:17;15.10;99.90
22742;DHT22;11538;48.884;8.696;2023-05-02T09:54:47;15.30;99.90
22742;DHT22;11538;48.884;8.696;2023-05-02T09:57:16;15.50;99.90
22742;DHT22;11538;48.884;8.696;2023-05-02T09:59:54;15.80;99.90
22742;DHT22;11538;48.884;8.696;2023-05-02T10:02:24;16.10;99.90
22742;DHT22;11538;48.884;8.696;2023-05-02T10:04:56;16.40;99.90
22742;DHT22;11538;48.884;8.696;2023-05-02T10:07:26;16.70;99.90
22742;DHT22;11538;48.884;8.696;2023-05-02T10:09:54;16.90;99.90
22742;DHT22;11538;48.884;8.696;2023-05-02T10:12:25;17.00;99.90
22742;DHT22;11538;48.884;8.696;2023-05-02T10:14:59;17.00;99.90
22742;DHT22;11538;48.884;8.696;2023-05-02T10:17:30;16.90;99.90
22742;DHT22;11538;48.884;8.696;2023-05-02T10:20:06;16.80;99.90
22742;DHT22;11538;48.884;8.696;2023-05-02T10:22:34;16.70;99.90
22742;DHT22;11538;48.884;8.696;2023-05-02T10:25:02;16.70;99.90
22742;DHT22;11538;48.884;8.696;2023-05-02T10:27:30;16.60;99.90
22742;DHT22;11538;48.884;8.696;2023-05-02T10:29:59;16.60;99.90
22742;DHT22;11538;48.884;8.696;2023-05-02T10:32:27;16.50;99.90
22742;DHT22;11538;48.884;8.696;2023-05-02T10:34:56;16.50;99.90
22742;DHT22;11538;48.884;8.696;2023-05-02T10:37:29;16.60;99.90
22742;DHT22;11538;48.884;8.696;2023-05-02T10:40:01;16.90;99.90
22742;DHT22;11538;48.884;8.696;2023-05-02T10:42:29;17.30;99.90
22742;DHT22;11538;48.884;8.696;2023-05-02T10:45:00;17.70;99.90
22742;DHT22;11538;48.884;8.696;2023-05-02T10:47:28;18.20;99.90
22742;DHT22;11538;48.884;8.696;2023-05-02T10:49:59;18.40;99.90
22742;DHT22;11538;48.884;8.696;2023-05-02T10:55:21;18.40;99.90
22742;DHT22;11538;48.884;8.696;2023-05-02T11:00:37;18.10;99.90
22742;DHT22;11538;48.884;8.696;2023-05-02T11:03:04;17.90;99.90
22742;DHT22;11538;48.884;8.696;2023-05-02T11:05:31;17.80;99.90
22742;DHT22;11538;48.884;8.696;2023-05-02T11:08:30;17.70;99.90
22742;DHT22;11538;48.884;8.696;2023-05-02T11:14:05;17.60;99.90
22742;DHT22;11538;48.884;8.696;2023-05-02T11:19:28;17.60;99.90
22742;DHT22;11538;48.884;8.696;2023-05-02T11:24:46;17.70;99.90
22742;DHT22;11538;48.884;8.696;2023-05-02T11:29:58;18.30;99.90
22742;DHT22;11538;48.884;8.696;2023-05-02T11:35:18;18.70;99.90
22742;DHT22;11538;48.884;8.696;2023-05-02T11:38:02;18.70;99.90
22742;DHT22;11538;48.884;8.696;2023-05-02T11:40:31;18.50;99.90
22742;DHT22;11538;48.884;8.696;2023-05-02T11:42:59;18.30;99.90
22742;DHT22;11538;48.884;8.696;2023-05-02T11:45:36;18.20;99.90
22742;DHT22;11538;48.884;8.696;2023-05-02T11:48:05;18.00;99.90
22742;DHT22;11538;48.884;8.696;2023-05-02T11:50:47;17.90;99.90
22742;DHT22;11538;48.884;8.696;2023-05-02T11:53:18;17.80;99.90
22742;DHT22;11538;48.884;8.696;2023-05-02T11:55:54;17.60;99.90
22742;DHT22;11538;48.884;8.696;2023-05-02T11:58:27;17.50;99.90
22742;DHT22;11538;48.884;8.696;2023-05-02T12:00:59;17.40;99.90
22742;DHT22;11538;48.884;8.696;2023-05-02T12:03:39;17.30;99.90
22742;DHT22;11538;48.884;8.696;2023-05-02T12:06:14;17.30;99.90
22742;DHT22;11538;48.884;8.696;2023-05-02T12:08:44;17.40;99.90
22742;DHT22;11538;48.884;8.696;2023-05-02T12:11:15;17.40;99.90
22742;DHT22;11538;48.884;8.696;2023-05-02T12:13:47;17.50;99.90
22742;DHT22;11538;48.884;8.696;2023-05-02T12:16:16;17.50;99.90
22742;DHT22;11538;48.884;8.696;2023-05-02T12:18:44;17.50;99.90
22742;DHT22;11538;48.884;8.696;2023-05-02T12:21:13;17.60;99.90
22742;DHT22;11538;48.884;8.696;2023-05-02T12:23:40;17.60;99.90
22742;DHT22;11538;48.884;8.696;2023-05-02T12:28:52;17.70;99.90
22742;DHT22;11538;48.884;8.696;2023-05-02T12:31:25;18.00;99.90
22742;DHT22;11538;48.884;8.696;2023-05-02T12:33:54;18.50;99.90
22742;DHT22;11538;48.884;8.696;2023-05-02T12:36:23;19.30;99.90
22742;DHT22;11538;48.884;8.696;2023-05-02T12:38:54;19.90;99.90
22742;DHT22;11538;48.884;8.696;2023-05-02T12:41:30;20.20;99.90
22742;DHT22;11538;48.884;8.696;2023-05-02T12:44:03;20.50;99.90
22742;DHT22;11538;48.884;8.696;2023-05-02T12:46:31;20.70;99.90
22742;DHT22;11538;48.884;8.696;2023-05-02T12:49:08;20.70;99.90
22742;DHT22;11538;48.884;8.696;2023-05-02T12:51:38;20.60;99.90
22742;DHT22;11538;48.884;8.696;2023-05-02T12:54:05;20.50;99.90
22742;DHT22;11538;48.884;8.696;2023-05-02T12:56:39;20.50;99.90
22742;DHT22;11538;48.884;8.696;2023-05-02T12:59:07;20.50;99.90
22742;DHT22;11538;48.884;8.696;2023-05-02T13:01:34;20.60;99.90
22742;DHT22;11538;48.884;8.696;2023-05-02T13:04:02;20.80;99.90
22742;DHT22;11538;48.884;8.696;2023-05-02T13:06:29;21.10;99.90
22742;DHT22;11538;48.884;8.696;2023-05-02T13:08:57;21.40;99.90
22742;DHT22;11538;48.884;8.696;2023-05-02T13:11:24;22.10;99.90
22742;DHT22;11538;48.884;8.696;2023-05-02T13:13:51;22.80;99.90
22742;DHT22;11538;48.884;8.696;2023-05-02T13:16:19;23.50;99.90
22742;DHT22;11538;48.884;8.696;2023-05-02T13:18:45;24.20;99.90
22742;DHT22;11538;48.884;8.696;2023-05-02T13:21:13;24.80;99.90
22742;DHT22;11538;48.884;8.696;2023-05-02T13:23:40;25.30;99.90
22742;DHT22;11538;48.884;8.696;2023-05-02T13:26:10;25.70;99.90
22742;DHT22;11538;48.884;8.696;2023-05-02T13:28:37;26.10;99.90
22742;DHT22;11538;48.884;8.696;2023-05-02T13:31:04;26.40;99.90
22742;DHT22;11538;48.884;8.696;2023-05-02T13:33:31;26.40;99.90
22742;DHT22;11538;48.884;8.696;2023-05-02T13:36:01;26.40;99.90
22742;DHT22;11538;48.884;8.696;2023-05-02T13:38:28;26.50;99.90
22742;DHT22;11538;48.884;8.696;2023-05-02T13:40:55;26.60;99.90
22742;DHT22;11538;48.884;8.696;2023-05-02T13:43:24;26.30;99.90
22742;DHT22;11538;48.884;8.696;2023-05-02T13:45:51;26.30;99.90
22742;DHT22;11538;48.884;8.696;2023-05-02T13:48:18;26.50;99.90
22742;DHT22;11538;48.884;8.696;2023-05-02T13:50:45;26.80;99.90
22742;DHT22;11538;48.884;8.696;2023-05-02T13:53:12;27.10;99.90
22742;DHT22;11538;48.884;8.696;2023-05-02T13:55:39;27.30;99.90
22742;DHT22;11538;48.884;8.696;2023-05-02T13:58:06;27.50;99.90
22742;DHT22;11538;48.884;8.696;2023-05-02T14:00:33;27.60;99.90
22742;DHT22;11538;48.884;8.696;2023-05-02T14:03:00;27.60;99.90
22742;DHT22;11538;48.884;8.696;2023-05-02T14:05:27;27.60;99.90
22742;DHT22;11538;48.884;8.696;2023-05-02T14:07:54;27.40;99.90
22742;DHT22;11538;48.884;8.696;2023-05-02T14:10:21;27.10;99.90
22742;DHT22;11538;48.884;8.696;2023-05-02T14:12:48;26.60;99.90
22742;DHT22;11538;48.884;8.696;2023-05-02T14:15:15;26.00;99.90
22742;DHT22;11538;48.884;8.696;2023-05-02T14:17:42;25.70;99.90
22742;DHT22;11538;48.884;8.696;2023-05-02T14:20:09;25.70;99.90
22742;DHT22;11538;48.884;8.696;2023-05-02T14:22:36;25.30;99.90
22742;DHT22;11538;48.884;8.696;2023-05-02T14:25:05;25.00;99.90
22742;DHT22;11538;48.884;8.696;2023-05-02T14:27:34;24.60;99.90
22742;DHT22;11538;48.884;8.696;2023-05-02T14:30:01;24.20;99.90
22742;DHT22;11538;48.884;8.696;2023-05-02T14:32:30;23.80;99.90
22742;DHT22;11538;48.884;8.696;2023-05-02T14:34:57;23.30;99.90
22742;DHT22;11538;48.884;8.696;2023-05-02T14:37:24;22.90;99.90
22742;DHT22;11538;48.884;8.696;2023-05-02T14:39:53;23.00;99.90
22742;DHT22;11538;48.884;8.696;2023-05-02T14:42:24;23.20;99.90
22742;DHT22;11538;48.884;8.696;2023-05-02T14:44:51;23.60;99.90
22742;DHT22;11538;48.884;8.696;2023-05-02T14:47:19;23.90;99.90
22742;DHT22;11538;48.884;8.696;2023-05-02T14:49:46;24.20;99.90
22742;DHT22;11538;48.884;8.696;2023-05-02T14:52:13;24.30;99.90
22742;DHT22;11538;48.884;8.696;2023-05-02T14:54:43;24.40;99.90
22742;DHT22;11538;48.884;8.696;2023-05-02T14:57:10;24.30;99.90
22742;DHT22;11538;48.884;8.696;2023-05-02T14:59:37;24.10;99.90
22742;DHT22;11538;48.884;8.696;2023-05-02T15:02:04;24.20;99.90
22742;DHT22;11538;48.884;8.696;2023-05-02T15:04:31;24.20;99.90
22742;DHT22;11538;48.884;8.696;2023-05-02T15:06:59;24.30;99.90
22742;DHT22;11538;48.884;8.696;2023-05-02T15:09:27;24.40;99.90
22742;DHT22;11538;48.884;8.696;2023-05-02T15:11:55;24.50;99.90
22742;DHT22;11538;48.884;8.696;2023-05-02T15:14:22;24.50;99.90
22742;DHT22;11538;48.884;8.696;2023-05-02T15:16:49;24.60;99.90
22742;DHT22;11538;48.884;8.696;2023-05-02T15:19:16;24.60;99.90
22742;DHT22;11538;48.884;8.696;2023-05-02T15:21:43;24.50;99.90
22742;DHT22;11538;48.884;8.696;2023-05-02T15:24:10;24.40;99.90
22742;DHT22;11538;48.884;8.696;2023-05-02T15:26:37;24.30;99.90
22742;DHT22;11538;48.884;8.696;2023-05-02T15:29:06;24.10;99.90
22742;DHT22;11538;48.884;8.696;2023-05-02T15:31:32;23.80;99.90
22742;DHT22;11538;48.884;8.696;2023-05-02T15:34:00;23.50;99.90
22742;DHT22;11538;48.884;8.696;2023-05-02T15:36:27;23.10;99.90
22742;DHT22;11538;48.884;8.696;2023-05-02T15:38:56;22.70;99.90
22742;DHT22;11538;48.884;8.696;2023-05-02T15:41:24;22.40;99.90
22742;DHT22;11538;48.884;8.696;2023-05-02T15:43:53;22.00;99.90
22742;DHT22;11538;48.884;8.696;2023-05-02T15:46:20;21.70;99.90
22742;DHT22;11538;48.884;8.696;2023-05-02T15:48:47;21.40;99.90
22742;DHT22;11538;48.884;8.696;2023-05-02T15:51:15;21.20;99.90
22742;DHT22;11538;48.884;8.696;2023-05-02T15:53:42;20.90;99.90
22742;DHT22;11538;48.884;8.696;2023-05-02T15:56:11;20.70;99.90
22742;DHT22;11538;48.884;8.696;2023-05-02T15:58:45;20.50;99.90
22742;DHT22;11538;48.884;8.696;2023-05-02T16:01:12;20.30;99.90
22742;DHT22;11538;48.884;8.696;2023-05-02T16:03:39;20.10;99.90
22742;DHT22;11538;48.884;8.696;2023-05-02T16:06:07;19.90;99.90
22742;DHT22;11538;48.884;8.696;2023-05-02T16:08:33;19.80;99.90
22742;DHT22;11538;48.884;8.696;2023-05-02T16:11:00;19.60;99.90
22742;DHT22;11538;48.884;8.696;2023-05-02T16:13:27;19.50;99.90
22742;DHT22;11538;48.884;8.696;2023-05-02T16:15:57;19.40;99.90
22742;DHT22;11538;48.884;8.696;2023-05-02T16:18:24;19.30;99.90
22742;DHT22;11538;48.884;8.696;2023-05-02T16:20:57;19.20;99.90
22742;DHT22;11538;48.884;8.696;2023-05-02T16:23:24;19.20;99.90
22742;DHT22;11538;48.884;8.696;2023-05-02T16:25:59;19.10;99.90
22742;DHT22;11538;48.884;8.696;2023-05-02T16:28:27;19.00;99.90
22742;DHT22;11538;48.884;8.696;2023-05-02T16:30:55;19.00;99.90
22742;DHT22;11538;48.884;8.696;2023-05-02T16:33:22;18.90;99.90